地図

経路データ

SID SEASON NUMBER BASIN SUBBASIN NAME ISO_TIME NATURE LAT LON WMO_WIND WMO_PRES WMO_AGENCY TRACK_TYPE DIST2LAND LANDFALL IFLAG USA_AGENCY USA_ATCF_ID USA_LAT USA_LON USA_RECORD USA_STATUS USA_WIND USA_PRES USA_SSHS USA_R34_NE USA_R34_SE USA_R34_SW USA_R34_NW USA_R50_NE USA_R50_SE USA_R50_SW USA_R50_NW USA_R64_NE USA_R64_SE USA_R64_SW USA_R64_NW USA_POCI USA_ROCI USA_RMW USA_EYE TOKYO_LAT TOKYO_LON TOKYO_GRADE TOKYO_WIND TOKYO_PRES TOKYO_R50_DIR TOKYO_R50_LONG TOKYO_R50_SHORT TOKYO_R30_DIR TOKYO_R30_LONG TOKYO_R30_SHORT TOKYO_LAND CMA_LAT CMA_LON CMA_CAT CMA_WIND CMA_PRES HKO_LAT HKO_LON HKO_CAT HKO_WIND HKO_PRES NEWDELHI_LAT NEWDELHI_LON NEWDELHI_GRADE NEWDELHI_WIND NEWDELHI_PRES NEWDELHI_CI NEWDELHI_DP NEWDELHI_POCI REUNION_LAT REUNION_LON REUNION_TYPE REUNION_WIND REUNION_PRES REUNION_TNUM REUNION_CI REUNION_RMW REUNION_R34_NE REUNION_R34_SE REUNION_R34_SW REUNION_R34_NW REUNION_R50_NE REUNION_R50_SE REUNION_R50_SW REUNION_R50_NW REUNION_R64_NE REUNION_R64_SE REUNION_R64_SW REUNION_R64_NW BOM_LAT BOM_LON BOM_TYPE BOM_WIND BOM_PRES BOM_TNUM BOM_CI BOM_RMW BOM_R34_NE BOM_R34_SE BOM_R34_SW BOM_R34_NW BOM_R50_NE BOM_R50_SE BOM_R50_SW BOM_R50_NW BOM_R64_NE BOM_R64_SE BOM_R64_SW BOM_R64_NW BOM_ROCI BOM_POCI BOM_EYE BOM_POS_METHOD BOM_PRES_METHOD NADI_LAT NADI_LON NADI_CAT NADI_WIND NADI_PRES WELLINGTON_LAT WELLINGTON_LON WELLINGTON_WIND WELLINGTON_PRES DS824_LAT DS824_LON DS824_STAGE DS824_WIND DS824_PRES TD9636_LAT TD9636_LON TD9636_STAGE TD9636_WIND TD9636_PRES TD9635_LAT TD9635_LON TD9635_WIND TD9635_PRES TD9635_ROCI NEUMANN_LAT NEUMANN_LON NEUMANN_CLASS NEUMANN_WIND NEUMANN_PRES MLC_LAT MLC_LON MLC_CLASS MLC_WIND MLC_PRES USA_GUST BOM_GUST BOM_GUST_PER REUNION_GUST REUNION_GUST_PER USA_SEAHGT USA_SEARAD_NE USA_SEARAD_SE USA_SEARAD_SW USA_SEARAD_NW STORM_SPEED STORM_DIR
1896257N20090 1896 32 NI BB NOT_NAMED 1896-09-13 00:00:00 TS 19.9000 90.0000 main 210 207 _________O____ -1 19.9000 90.0000 TC 34 2 271
1896257N20090 1896 32 NI BB NOT_NAMED 1896-09-13 03:00:00 TS 19.9017 89.9000 main 207 203 _________PO___ -1 19.9025 89.8500 TC 36 19.9000 90.0000 2 2 269
1896257N20090 1896 32 NI BB NOT_NAMED 1896-09-13 06:00:00 TS 19.8950 89.7618 main 203 197 _________OP___ -1 19.9000 89.7000 TC 39 19.8876 89.8546 2 3 267
1896257N20090 1896 32 NI BB NOT_NAMED 1896-09-13 09:00:00 TS 19.8872 89.6174 main 197 194 _________PP___ -1 19.8925 89.5500 TC 42 19.8800 89.7074 2 3 269
1896257N20090 1896 32 NI BB NOT_NAMED 1896-09-13 12:00:00 TS 19.8913 89.4782 main 194 191 _________OP___ -1 19.9000 89.4000 TC 45 19.8825 89.5565 2 3 277
1896257N20090 1896 32 NI BB NOT_NAMED 1896-09-13 15:00:00 TS 19.9212 89.3250 main 191 179 _________PO___ -1 19.9425 89.2500 TC 45 19.9000 89.4000 3 3 285
1896257N20090 1896 32 NI BB NOT_NAMED 1896-09-13 18:00:00 TS 19.9678 89.1689 main 179 178 _________OP___ -1 20.0000 89.1000 TC 45 19.9356 89.2379 3 3 288
1896257N20090 1896 32 NI BB NOT_NAMED 1896-09-13 21:00:00 TS 20.0175 89.0100 main 178 167 _________PP___ -1 20.0500 88.9425 TC 45 19.9850 89.0776 3 3 290
1896257N20090 1896 32 NI BB NOT_NAMED 1896-09-14 00:00:00 TS 20.0710 88.8643 main 167 167 _________OP___ -1 20.1000 88.8000 TC 45 20.0419 88.9285 3 3 293
1896257N20090 1896 32 NI BB NOT_NAMED 1896-09-14 03:00:00 TS 20.1250 88.7425 main 169 157 _________PO___ -1 20.1500 88.6850 TC 45 20.1000 88.8000 3 2 298
1896257N20090 1896 32 NI BB NOT_NAMED 1896-09-14 06:00:00 TS 20.1750 88.6537 main 157 156 _________OP___ -1 20.2000 88.6000 TC 45 20.1499 88.7074 3 2 305
1896257N20090 1896 32 NI BB NOT_NAMED 1896-09-14 09:00:00 TS 20.2249 88.5925 main 156 145 _________PP___ -1 20.2500 88.5500 TC 45 20.1999 88.6349 3 2 312
1896257N20090 1896 32 NI BB NOT_NAMED 1896-09-14 12:00:00 TS 20.2750 88.5350 main 145 145 _________OP___ -1 20.3000 88.5000 TC 45 20.2499 88.5699 3 2 308
1896257N20090 1896 32 NI BB NOT_NAMED 1896-09-14 15:00:00 TS 20.3250 88.4538 main 145 145 _________PO___ -1 20.3500 88.4075 TC 45 20.3000 88.5000 3 2 296
1896257N20090 1896 32 NI BB NOT_NAMED 1896-09-14 18:00:00 TS 20.3505 88.3696 main 134 134 _________OP___ -1 20.4000 88.3000 TC 45 20.3011 88.4391 3 1 284
1896257N20090 1896 32 NI BB NOT_NAMED 1896-09-14 21:00:00 TS 20.3610 88.3019 main 134 129 _________PP___ -1 20.4124 88.2373 TC 45 20.3097 88.3665 3 2 295
1896257N20090 1896 32 NI BB NOT_NAMED 1896-09-15 00:00:00 TS 20.4317 88.1803 main 129 104 _________OP___ -1 20.5000 88.1000 TC 45 20.3635 88.2607 3 4 308
1896257N20090 1896 32 NI BB NOT_NAMED 1896-09-15 03:00:00 TS 20.6238 87.9364 main 94 63 _________PO___ -1 20.7477 87.7727 TC 41 20.5000 88.1000 3 7 314
1896257N20090 1896 32 NI BB NOT_NAMED 1896-09-15 06:00:00 TS 20.9383 87.6111 main 63 30 _________OP___ -1 21.1000 87.4000 TC 37 20.7765 87.8223 3 9 320
1896257N20090 1896 32 NI BB NOT_NAMED 1896-09-15 09:00:00 TS 21.3204 87.3035 main 30 0 _________PP___ -1 21.5075 87.1126 TC 33 21.1333 87.4945 3 9 325
1896257N20090 1896 32 NI BB NOT_NAMED 1896-09-15 12:00:00 TS 21.7117 87.0346 main 0 0 _________OP___ -1 21.9000 86.9000 TC 30 21.5234 87.1692 3 8 329
1896257N20090 1896 32 NI BB NOT_NAMED 1896-09-15 15:00:00 TS 22.0325 86.8349 main 0 0 _________PO___ -1 22.1649 86.7698 TC 30 21.9000 86.9000 1 7 335
1896257N20090 1896 32 NI BB NOT_NAMED 1896-09-15 18:00:00 TS 22.3123 86.7257 main 0 0 _________OP___ -1 22.4000 86.7000 TC 30 22.2246 86.7515 1 6 344
1896257N20090 1896 32 NI BB NOT_NAMED 1896-09-15 21:00:00 TS 22.6235 86.6546 main 0 0 _________PP___ -1 22.7225 86.6425 TC 30 22.5246 86.6667 1 6 350
1896257N20090 1896 32 NI BB NOT_NAMED 1896-09-16 00:00:00 TS 22.8936 86.6118 main 0 0 _________OP___ -1 23.0000 86.6000 TC 30 22.7873 86.6236 1 5 350
1896257N20090 1896 32 NI BB NOT_NAMED 1896-09-16 03:00:00 TS 23.0650 86.5712 main 0 0 _________PO___ -1 23.1300 86.5425 TC 30 23.0000 86.6000 1 3 345
1896257N20090 1896 32 NI BB NOT_NAMED 1896-09-16 06:00:00 TS 23.1772 86.5262 main 0 0 _________OP___ -1 23.2000 86.5000 TC 30 23.1543 86.5524 1 2 344
1896257N20090 1896 32 NI BB NOT_NAMED 1896-09-16 09:00:00 TS 23.2800 86.5062 main 0 0 _________PP___ -1 23.3000 86.4925 TC 30 23.2600 86.5198 1 2 0
1896257N20090 1896 32 NI BB NOT_NAMED 1896-09-16 12:00:00 TS 23.3678 86.5012 main 0 0 _________OP___ -1 23.4000 86.5000 TC 30 23.3356 86.5024 1 2 0
1896257N20090 1896 32 NI BB NOT_NAMED 1896-09-16 15:00:00 TS 23.4537 86.4963 main 0 0 _________PO___ -1 23.5075 86.4925 TC 30 23.4000 86.5000 1 2 5
1896257N20090 1896 32 NI BB NOT_NAMED 1896-09-16 18:00:00 TS 23.5350 86.5013 main 0 0 _________OP___ -1 23.6000 86.5000 TC 30 23.4700 86.5025 1 1 19
1896257N20090 1896 32 NI BB NOT_NAMED 1896-09-16 21:00:00 TS 23.5887 86.5313 main 0 0 _________PP___ -1 23.6425 86.5425 TC 30 23.5350 86.5201 1 1 30
1896257N20090 1896 32 NI BB NOT_NAMED 1896-09-17 00:00:00 TS 23.6537 86.5763 main 0 0 _________OP___ -1 23.7000 86.6000 TC 30 23.6075 86.5526 1 2 23
1896257N20090 1896 32 NI BB NOT_NAMED 1896-09-17 03:00:00 TS 23.7675 86.6213 main 0 0 _________PO___ -1 23.8350 86.6425 TC 30 23.7000 86.6000 1 3 18
1896257N20090 1896 32 NI BB NOT_NAMED 1896-09-17 06:00:00 TS 23.9203 86.6722 main 0 0 _________OP___ -1 24.0000 86.7000 TC 30 23.8406 86.6444 1 3 20
1896257N20090 1896 32 NI BB NOT_NAMED 1896-09-17 09:00:00 TS 24.0787 86.7450 main 0 0 _________PP___ -1 24.1575 86.7850 TC 30 23.9999 86.7050 1 3 27
1896257N20090 1896 32 NI BB NOT_NAMED 1896-09-17 12:00:00 TS 24.2296 86.8441 main 0 0 _________OP___ -1 24.3000 86.9000 TC 30 24.1593 86.7881 1 3 36
1896257N20090 1896 32 NI BB NOT_NAMED 1896-09-17 15:00:00 TS 24.3575 86.9675 main 0 0 _________PO___ -1 24.4150 87.0350 TC 30 24.3000 86.9000 1 3 50
1896257N20090 1896 32 NI BB NOT_NAMED 1896-09-17 18:00:00 TS 24.4504 87.1292 main 0 0 _________OP___ -1 24.5000 87.2000 TC 30 24.4008 87.0584 1 4 64
1896257N20090 1896 32 NI BB NOT_NAMED 1896-09-17 21:00:00 TS 24.5189 87.3250 main 0 0 _________PP___ -1 24.5576 87.4075 TC 30 24.4802 87.2425 1 4 71
1896257N20090 1896 32 NI BB NOT_NAMED 1896-09-18 00:00:00 TS 24.5723 87.5151 main 0 0 _________OP___ -1 24.6000 87.6000 TC 30 24.5445 87.4303 1 3 71
1896257N20090 1896 32 NI BB NOT_NAMED 1896-09-18 03:00:00 TS 24.6250 87.6575 main 0 0 _________PO___ -1 24.6500 87.7150 TC 30 24.6000 87.6000 1 2 65
1896257N20090 1896 32 NI BB NOT_NAMED 1896-09-18 06:00:00 TS 24.6765 87.7588 main 0 0 _________OP___ -1 24.7000 87.8000 TC 30 24.6530 87.7176 1 2 60
1896257N20090 1896 32 NI BB NOT_NAMED 1896-09-18 09:00:00 TS 24.7249 87.8539 main 0 0 _________PP___ -1 24.7500 87.8925 TC 30 24.6998 87.8152 1 2 61
1896257N20090 1896 32 NI BB NOT_NAMED 1896-09-18 12:00:00 TS 24.7734 87.9526 main 0 0 _________OP___ -1 24.8000 88.0000 TC 30 24.7468 87.9051 1 2 64
1896257N20090 1896 32 NI BB NOT_NAMED 1896-09-18 15:00:00 TS 24.8213 88.0750 main 0 0 _________PO___ -1 24.8425 88.1500 TC 30 24.8000 88.0000 1 2 64
1896257N20090 1896 32 NI BB NOT_NAMED 1896-09-18 18:00:00 TS 24.8795 88.1912 main 0 0 _________OP___ -1 24.9000 88.3000 TC 30 24.8642 88.1095 1 2 57
1896257N20090 1896 32 NI BB NOT_NAMED 1896-09-18 21:00:00 TS 24.9586 88.3043 main 0 0 _________PP___ -1 24.9900 88.4125 TC 30 24.9377 88.2323 1 3 50
1896257N20090 1896 32 NI BB NOT_NAMED 1896-09-19 00:00:00 TS 25.0449 88.4092 main 0 0 _________OP___ -1 25.1000 88.5000 TC 30 25.0173 88.3639 1 2 52
1896257N20090 1896 32 NI BB NOT_NAMED 1896-09-19 03:00:00 NR 25.1000 88.5000 main 0 __________O___ -1 TC 25.1000 88.5000 1 2 55

IBTrACS Databaseについて

本データベースは、米国NOAAが公開する1842年以降の世界の熱帯低気圧のベストトラックデータアーカイブInternational Best Track Archive for Climate Stewardship (IBTrACS)を、ウェブで閲覧しやすい形式に変換したものです。

最終更新日:2021-12-03